sensor_id;sensor_type;location;lat;lon;timestamp;temperature;humidity
5009;DHT22;2523;51.058;6.922;2022-10-16T00:00:43;13.70;99.90
5009;DHT22;2523;51.058;6.922;2022-10-16T00:03:09;13.70;99.90
5009;DHT22;2523;51.058;6.922;2022-10-16T00:05:42;13.70;99.90
5009;DHT22;2523;51.058;6.922;2022-10-16T00:08:12;13.70;99.90
5009;DHT22;2523;51.058;6.922;2022-10-16T00:10:39;13.70;99.90
5009;DHT22;2523;51.058;6.922;2022-10-16T00:13:04;13.70;99.90
5009;DHT22;2523;51.058;6.922;2022-10-16T00:15:33;13.70;99.90
5009;DHT22;2523;51.058;6.922;2022-10-16T00:18:01;13.70;99.90
5009;DHT22;2523;51.058;6.922;2022-10-16T00:20:27;13.70;99.90
5009;DHT22;2523;51.058;6.922;2022-10-16T00:22:52;13.70;99.90
5009;DHT22;2523;51.058;6.922;2022-10-16T00:25:18;13.70;99.90
5009;DHT22;2523;51.058;6.922;2022-10-16T00:27:44;13.70;99.90
5009;DHT22;2523;51.058;6.922;2022-10-16T00:30:09;13.70;99.90
5009;DHT22;2523;51.058;6.922;2022-10-16T00:32:35;13.70;99.90
5009;DHT22;2523;51.058;6.922;2022-10-16T00:35:01;13.70;99.90
5009;DHT22;2523;51.058;6.922;2022-10-16T00:37:26;13.70;99.90
5009;DHT22;2523;51.058;6.922;2022-10-16T00:39:52;13.60;99.90
5009;DHT22;2523;51.058;6.922;2022-10-16T00:42:18;13.60;99.90
5009;DHT22;2523;51.058;6.922;2022-10-16T00:47:12;13.60;99.90
5009;DHT22;2523;51.058;6.922;2022-10-16T00:49:38;13.60;99.90
5009;DHT22;2523;51.058;6.922;2022-10-16T00:52:05;13.50;99.90
5009;DHT22;2523;51.058;6.922;2022-10-16T00:54:32;13.50;99.90
5009;DHT22;2523;51.058;6.922;2022-10-16T00:57:01;13.50;99.90
5009;DHT22;2523;51.058;6.922;2022-10-16T00:59:30;13.50;99.90
5009;DHT22;2523;51.058;6.922;2022-10-16T01:01:57;13.50;99.90
5009;DHT22;2523;51.058;6.922;2022-10-16T01:04:24;13.40;99.90
5009;DHT22;2523;51.058;6.922;2022-10-16T01:07:09;13.40;99.90
5009;DHT22;2523;51.058;6.922;2022-10-16T01:13:14;13.40;99.90
5009;DHT22;2523;51.058;6.922;2022-10-16T01:15:41;13.40;99.90
5009;DHT22;2523;51.058;6.922;2022-10-16T01:18:14;13.30;99.90
5009;DHT22;2523;51.058;6.922;2022-10-16T01:29:09;13.40;99.90
5009;DHT22;2523;51.058;6.922;2022-10-16T01:31:38;13.40;99.90
5009;DHT22;2523;51.058;6.922;2022-10-16T01:34:16;13.40;99.90
5009;DHT22;2523;51.058;6.922;2022-10-16T01:36:50;13.40;99.90
5009;DHT22;2523;51.058;6.922;2022-10-16T01:39:22;13.40;99.90
5009;DHT22;2523;51.058;6.922;2022-10-16T01:41:54;13.40;99.90
5009;DHT22;2523;51.058;6.922;2022-10-16T01:44:23;13.40;99.90
5009;DHT22;2523;51.058;6.922;2022-10-16T01:46:52;13.40;99.90
5009;DHT22;2523;51.058;6.922;2022-10-16T01:49:20;13.40;99.90
5009;DHT22;2523;51.058;6.922;2022-10-16T01:51:49;13.50;99.90
5009;DHT22;2523;51.058;6.922;2022-10-16T01:54:17;13.50;99.90
5009;DHT22;2523;51.058;6.922;2022-10-16T01:56:45;13.50;99.90
5009;DHT22;2523;51.058;6.922;2022-10-16T01:59:15;13.50;99.90
5009;DHT22;2523;51.058;6.922;2022-10-16T02:01:46;13.50;99.90
5009;DHT22;2523;51.058;6.922;2022-10-16T02:04:20;13.60;99.90
5009;DHT22;2523;51.058;6.922;2022-10-16T02:06:46;13.60;99.90
5009;DHT22;2523;51.058;6.922;2022-10-16T02:09:12;13.60;99.90
5009;DHT22;2523;51.058;6.922;2022-10-16T02:11:40;13.60;99.90
5009;DHT22;2523;51.058;6.922;2022-10-16T02:14:07;13.60;99.90
5009;DHT22;2523;51.058;6.922;2022-10-16T02:16:41;13.60;99.90
5009;DHT22;2523;51.058;6.922;2022-10-16T02:19:07;13.60;99.90
5009;DHT22;2523;51.058;6.922;2022-10-16T02:21:58;13.60;99.90
5009;DHT22;2523;51.058;6.922;2022-10-16T02:24:42;13.60;99.90
5009;DHT22;2523;51.058;6.922;2022-10-16T02:27:17;13.60;99.90
5009;DHT22;2523;51.058;6.922;2022-10-16T02:29:49;13.60;99.90
5009;DHT22;2523;51.058;6.922;2022-10-16T02:32:21;13.60;99.90
5009;DHT22;2523;51.058;6.922;2022-10-16T02:34:49;13.60;99.90
5009;DHT22;2523;51.058;6.922;2022-10-16T02:37:16;13.70;99.90
5009;DHT22;2523;51.058;6.922;2022-10-16T02:39:43;13.70;99.90
5009;DHT22;2523;51.058;6.922;2022-10-16T02:42:13;13.60;99.90
5009;DHT22;2523;51.058;6.922;2022-10-16T02:44:39;13.60;99.90
5009;DHT22;2523;51.058;6.922;2022-10-16T02:47:05;13.60;99.90
5009;DHT22;2523;51.058;6.922;2022-10-16T02:49:30;13.60;99.90
5009;DHT22;2523;51.058;6.922;2022-10-16T02:51:56;13.70;99.90
5009;DHT22;2523;51.058;6.922;2022-10-16T02:54:21;13.70;99.90
5009;DHT22;2523;51.058;6.922;2022-10-16T02:56:47;13.70;99.90
5009;DHT22;2523;51.058;6.922;2022-10-16T02:59:12;13.70;99.90
5009;DHT22;2523;51.058;6.922;2022-10-16T03:01:38;13.70;99.90
5009;DHT22;2523;51.058;6.922;2022-10-16T03:04:03;13.70;99.90
5009;DHT22;2523;51.058;6.922;2022-10-16T03:06:29;13.70;99.90
5009;DHT22;2523;51.058;6.922;2022-10-16T03:08:54;13.70;99.90
5009;DHT22;2523;51.058;6.922;2022-10-16T03:11:20;13.70;99.90
5009;DHT22;2523;51.058;6.922;2022-10-16T03:13:45;13.60;99.90
5009;DHT22;2523;51.058;6.922;2022-10-16T03:16:11;13.60;99.90
5009;DHT22;2523;51.058;6.922;2022-10-16T03:18:36;13.60;99.90
5009;DHT22;2523;51.058;6.922;2022-10-16T03:21:02;13.60;99.90
5009;DHT22;2523;51.058;6.922;2022-10-16T03:23:28;13.60;99.90
5009;DHT22;2523;51.058;6.922;2022-10-16T03:25:54;13.60;99.90
5009;DHT22;2523;51.058;6.922;2022-10-16T03:28:19;13.50;99.90
5009;DHT22;2523;51.058;6.922;2022-10-16T03:30:45;13.50;99.90
5009;DHT22;2523;51.058;6.922;2022-10-16T03:33:10;13.50;99.90
5009;DHT22;2523;51.058;6.922;2022-10-16T03:35:36;13.50;99.90
5009;DHT22;2523;51.058;6.922;2022-10-16T03:38:01;13.40;99.90
5009;DHT22;2523;51.058;6.922;2022-10-16T03:40:27;13.40;99.90
5009;DHT22;2523;51.058;6.922;2022-10-16T03:42:52;13.40;99.90
5009;DHT22;2523;51.058;6.922;2022-10-16T03:45:20;13.40;99.90
5009;DHT22;2523;51.058;6.922;2022-10-16T03:47:46;13.40;99.90
5009;DHT22;2523;51.058;6.922;2022-10-16T03:50:12;13.40;99.90
5009;DHT22;2523;51.058;6.922;2022-10-16T03:52:38;13.40;99.90
5009;DHT22;2523;51.058;6.922;2022-10-16T03:55:04;13.40;99.90
5009;DHT22;2523;51.058;6.922;2022-10-16T03:57:29;13.40;99.90
5009;DHT22;2523;51.058;6.922;2022-10-16T03:59:55;13.30;99.90
5009;DHT22;2523;51.058;6.922;2022-10-16T04:02:20;13.40;99.90
5009;DHT22;2523;51.058;6.922;2022-10-16T04:04:46;13.40;99.90
5009;DHT22;2523;51.058;6.922;2022-10-16T04:07:11;13.40;99.90
5009;DHT22;2523;51.058;6.922;2022-10-16T04:09:37;13.40;99.90
5009;DHT22;2523;51.058;6.922;2022-10-16T04:12:02;13.40;99.90
5009;DHT22;2523;51.058;6.922;2022-10-16T04:14:28;13.40;99.90
5009;DHT22;2523;51.058;6.922;2022-10-16T04:16:53;13.40;99.90
5009;DHT22;2523;51.058;6.922;2022-10-16T04:19:19;13.50;99.90
5009;DHT22;2523;51.058;6.922;2022-10-16T04:21:44;13.50;99.90
5009;DHT22;2523;51.058;6.922;2022-10-16T04:24:10;13.50;99.90
5009;DHT22;2523;51.058;6.922;2022-10-16T04:26:36;13.50;99.90
5009;DHT22;2523;51.058;6.922;2022-10-16T04:29:02;13.50;99.90
5009;DHT22;2523;51.058;6.922;2022-10-16T04:31:28;13.50;99.90
5009;DHT22;2523;51.058;6.922;2022-10-16T04:33:53;13.40;99.90
5009;DHT22;2523;51.058;6.922;2022-10-16T04:36:19;13.40;99.90
5009;DHT22;2523;51.058;6.922;2022-10-16T04:38:44;13.40;99.90
5009;DHT22;2523;51.058;6.922;2022-10-16T04:41:10;13.40;99.90
5009;DHT22;2523;51.058;6.922;2022-10-16T04:43:35;13.40;99.90
5009;DHT22;2523;51.058;6.922;2022-10-16T04:46:01;13.30;99.90
5009;DHT22;2523;51.058;6.922;2022-10-16T04:48:27;13.30;99.90
5009;DHT22;2523;51.058;6.922;2022-10-16T04:50:52;13.30;99.90
5009;DHT22;2523;51.058;6.922;2022-10-16T04:53:18;13.30;99.90
5009;DHT22;2523;51.058;6.922;2022-10-16T04:55:43;13.20;99.90
5009;DHT22;2523;51.058;6.922;2022-10-16T04:58:09;13.20;99.90
5009;DHT22;2523;51.058;6.922;2022-10-16T05:00:35;13.20;99.90
5009;DHT22;2523;51.058;6.922;2022-10-16T05:03:01;13.20;99.90
5009;DHT22;2523;51.058;6.922;2022-10-16T05:05:27;13.20;99.90
5009;DHT22;2523;51.058;6.922;2022-10-16T05:07:53;13.20;99.90
5009;DHT22;2523;51.058;6.922;2022-10-16T05:10:19;13.20;99.90
5009;DHT22;2523;51.058;6.922;2022-10-16T05:12:46;13.20;99.90
5009;DHT22;2523;51.058;6.922;2022-10-16T05:15:12;13.10;99.90
5009;DHT22;2523;51.058;6.922;2022-10-16T05:17:37;13.10;99.90
5009;DHT22;2523;51.058;6.922;2022-10-16T05:20:03;13.10;99.90
5009;DHT22;2523;51.058;6.922;2022-10-16T05:22:29;13.10;99.90
5009;DHT22;2523;51.058;6.922;2022-10-16T05:24:54;13.10;99.90
5009;DHT22;2523;51.058;6.922;2022-10-16T05:27:20;13.00;99.90
5009;DHT22;2523;51.058;6.922;2022-10-16T05:29:47;13.00;99.90
5009;DHT22;2523;51.058;6.922;2022-10-16T05:32:17;13.00;99.90
5009;DHT22;2523;51.058;6.922;2022-10-16T05:34:43;13.00;99.90
5009;DHT22;2523;51.058;6.922;2022-10-16T05:37:09;13.00;99.90
5009;DHT22;2523;51.058;6.922;2022-10-16T05:39:36;13.00;99.90
5009;DHT22;2523;51.058;6.922;2022-10-16T05:42:02;13.00;99.90
5009;DHT22;2523;51.058;6.922;2022-10-16T05:44:28;13.00;99.90
5009;DHT22;2523;51.058;6.922;2022-10-16T05:46:53;13.00;99.90
5009;DHT22;2523;51.058;6.922;2022-10-16T05:49:19;13.10;99.90
5009;DHT22;2523;51.058;6.922;2022-10-16T05:51:44;13.10;99.90
5009;DHT22;2523;51.058;6.922;2022-10-16T05:54:10;13.10;99.90
5009;DHT22;2523;51.058;6.922;2022-10-16T05:56:35;13.20;99.90
5009;DHT22;2523;51.058;6.922;2022-10-16T05:59:03;13.20;99.90
5009;DHT22;2523;51.058;6.922;2022-10-16T06:01:28;13.20;99.90
5009;DHT22;2523;51.058;6.922;2022-10-16T06:03:54;13.20;99.90
5009;DHT22;2523;51.058;6.922;2022-10-16T06:06:21;13.20;99.90
5009;DHT22;2523;51.058;6.922;2022-10-16T06:08:49;13.20;99.90
5009;DHT22;2523;51.058;6.922;2022-10-16T06:11:17;13.30;99.90
5009;DHT22;2523;51.058;6.922;2022-10-16T06:13:43;13.20;99.90
5009;DHT22;2523;51.058;6.922;2022-10-16T06:16:12;13.20;99.90
5009;DHT22;2523;51.058;6.922;2022-10-16T06:18:38;13.30;99.90
5009;DHT22;2523;51.058;6.922;2022-10-16T06:21:16;13.30;99.90
5009;DHT22;2523;51.058;6.922;2022-10-16T06:23:42;13.30;99.90
5009;DHT22;2523;51.058;6.922;2022-10-16T06:26:10;13.30;99.90
5009;DHT22;2523;51.058;6.922;2022-10-16T06:28:36;13.40;99.90
5009;DHT22;2523;51.058;6.922;2022-10-16T06:31:03;13.40;99.90
5009;DHT22;2523;51.058;6.922;2022-10-16T06:33:30;13.40;99.90
5009;DHT22;2523;51.058;6.922;2022-10-16T06:36:10;13.40;99.90
5009;DHT22;2523;51.058;6.922;2022-10-16T06:38:37;13.50;99.90
5009;DHT22;2523;51.058;6.922;2022-10-16T06:41:03;13.50;99.90
5009;DHT22;2523;51.058;6.922;2022-10-16T06:43:30;13.50;99.90
5009;DHT22;2523;51.058;6.922;2022-10-16T06:45:59;13.60;99.90
5009;DHT22;2523;51.058;6.922;2022-10-16T06:48:25;13.60;99.90
5009;DHT22;2523;51.058;6.922;2022-10-16T06:51:01;13.60;99.90
5009;DHT22;2523;51.058;6.922;2022-10-16T06:53:29;13.70;99.90
5009;DHT22;2523;51.058;6.922;2022-10-16T06:55:55;13.70;99.90
5009;DHT22;2523;51.058;6.922;2022-10-16T06:58:21;13.80;99.90
5009;DHT22;2523;51.058;6.922;2022-10-16T07:00:47;13.80;99.90
5009;DHT22;2523;51.058;6.922;2022-10-16T07:03:12;13.90;99.90
5009;DHT22;2523;51.058;6.922;2022-10-16T07:05:42;13.90;99.90
5009;DHT22;2523;51.058;6.922;2022-10-16T07:08:08;14.00;99.90
5009;DHT22;2523;51.058;6.922;2022-10-16T07:10:34;14.00;99.90
5009;DHT22;2523;51.058;6.922;2022-10-16T07:13:00;14.10;99.90
5009;DHT22;2523;51.058;6.922;2022-10-16T07:15:26;14.20;99.90
5009;DHT22;2523;51.058;6.922;2022-10-16T07:17:52;14.20;99.90
5009;DHT22;2523;51.058;6.922;2022-10-16T07:20:17;14.30;99.90
5009;DHT22;2523;51.058;6.922;2022-10-16T07:22:43;14.30;99.90
5009;DHT22;2523;51.058;6.922;2022-10-16T07:25:08;14.40;99.90
5009;DHT22;2523;51.058;6.922;2022-10-16T07:27:34;14.40;99.90
5009;DHT22;2523;51.058;6.922;2022-10-16T07:30:00;14.50;99.90
5009;DHT22;2523;51.058;6.922;2022-10-16T07:32:26;14.60;99.90
5009;DHT22;2523;51.058;6.922;2022-10-16T07:34:52;14.60;99.90
5009;DHT22;2523;51.058;6.922;2022-10-16T07:37:18;14.70;99.90
5009;DHT22;2523;51.058;6.922;2022-10-16T07:39:44;14.80;99.90
5009;DHT22;2523;51.058;6.922;2022-10-16T07:42:09;14.80;99.90
5009;DHT22;2523;51.058;6.922;2022-10-16T07:44:35;14.80;99.90
5009;DHT22;2523;51.058;6.922;2022-10-16T07:47:00;14.90;99.90
5009;DHT22;2523;51.058;6.922;2022-10-16T07:49:25;14.80;99.90
5009;DHT22;2523;51.058;6.922;2022-10-16T07:51:51;14.80;99.90
5009;DHT22;2523;51.058;6.922;2022-10-16T07:54:17;14.70;99.90
5009;DHT22;2523;51.058;6.922;2022-10-16T07:56:42;14.70;99.90
5009;DHT22;2523;51.058;6.922;2022-10-16T07:59:08;14.60;99.90
5009;DHT22;2523;51.058;6.922;2022-10-16T08:01:33;14.60;99.90
5009;DHT22;2523;51.058;6.922;2022-10-16T08:03:59;14.70;99.90
5009;DHT22;2523;51.058;6.922;2022-10-16T08:06:24;14.70;99.90
5009;DHT22;2523;51.058;6.922;2022-10-16T08:08:50;14.90;99.90
5009;DHT22;2523;51.058;6.922;2022-10-16T08:11:15;15.10;99.90
5009;DHT22;2523;51.058;6.922;2022-10-16T08:13:42;15.20;99.90
5009;DHT22;2523;51.058;6.922;2022-10-16T08:16:08;15.40;99.90
5009;DHT22;2523;51.058;6.922;2022-10-16T08:18:36;15.50;99.90
5009;DHT22;2523;51.058;6.922;2022-10-16T08:21:02;15.80;99.90
5009;DHT22;2523;51.058;6.922;2022-10-16T08:23:28;15.90;99.90
5009;DHT22;2523;51.058;6.922;2022-10-16T08:25:54;16.00;99.90
5009;DHT22;2523;51.058;6.922;2022-10-16T08:28:20;16.10;99.90
5009;DHT22;2523;51.058;6.922;2022-10-16T08:30:46;16.20;99.90
5009;DHT22;2523;51.058;6.922;2022-10-16T08:33:12;16.30;99.90
5009;DHT22;2523;51.058;6.922;2022-10-16T08:35:37;16.40;99.90
5009;DHT22;2523;51.058;6.922;2022-10-16T08:38:04;16.50;99.90
5009;DHT22;2523;51.058;6.922;2022-10-16T08:40:32;16.60;99.90
5009;DHT22;2523;51.058;6.922;2022-10-16T08:48:12;17.20;99.90
5009;DHT22;2523;51.058;6.922;2022-10-16T08:50:40;17.30;99.90
5009;DHT22;2523;51.058;6.922;2022-10-16T08:53:06;17.60;99.90
5009;DHT22;2523;51.058;6.922;2022-10-16T08:55:41;17.80;99.90
5009;DHT22;2523;51.058;6.922;2022-10-16T08:58:18;18.00;99.90
5009;DHT22;2523;51.058;6.922;2022-10-16T09:01:04;18.30;99.90
5009;DHT22;2523;51.058;6.922;2022-10-16T09:06:38;18.70;99.90
5009;DHT22;2523;51.058;6.922;2022-10-16T09:15:29;19.50;99.90
5009;DHT22;2523;51.058;6.922;2022-10-16T09:18:01;19.80;99.90
5009;DHT22;2523;51.058;6.922;2022-10-16T09:23:15;20.50;99.90
5009;DHT22;2523;51.058;6.922;2022-10-16T09:25:45;20.70;99.90
5009;DHT22;2523;51.058;6.922;2022-10-16T09:28:11;20.70;99.90
5009;DHT22;2523;51.058;6.922;2022-10-16T09:30:37;20.80;99.90
5009;DHT22;2523;51.058;6.922;2022-10-16T09:33:04;21.10;99.90
5009;DHT22;2523;51.058;6.922;2022-10-16T09:35:44;21.00;99.90
5009;DHT22;2523;51.058;6.922;2022-10-16T09:38:31;20.90;99.90
5009;DHT22;2523;51.058;6.922;2022-10-16T09:41:00;21.40;99.90
5009;DHT22;2523;51.058;6.922;2022-10-16T09:43:42;21.50;99.90
5009;DHT22;2523;51.058;6.922;2022-10-16T09:51:47;21.50;99.90
5009;DHT22;2523;51.058;6.922;2022-10-16T09:54:18;21.60;99.90
5009;DHT22;2523;51.058;6.922;2022-10-16T09:56:44;21.80;99.90
5009;DHT22;2523;51.058;6.922;2022-10-16T09:59:21;22.20;99.90
5009;DHT22;2523;51.058;6.922;2022-10-16T10:01:53;22.40;99.90
5009;DHT22;2523;51.058;6.922;2022-10-16T10:04:22;22.70;99.90
5009;DHT22;2523;51.058;6.922;2022-10-16T10:06:53;22.70;99.90
5009;DHT22;2523;51.058;6.922;2022-10-16T10:09:24;22.70;99.90
5009;DHT22;2523;51.058;6.922;2022-10-16T10:12:01;23.10;99.90
5009;DHT22;2523;51.058;6.922;2022-10-16T10:14:38;23.10;99.90
5009;DHT22;2523;51.058;6.922;2022-10-16T10:19:42;23.20;99.90
5009;DHT22;2523;51.058;6.922;2022-10-16T10:25:19;23.40;99.90
5009;DHT22;2523;51.058;6.922;2022-10-16T10:41:34;24.00;96.50
5009;DHT22;2523;51.058;6.922;2022-10-16T10:44:30;23.60;92.10
5009;DHT22;2523;51.058;6.922;2022-10-16T10:50:14;22.90;99.90
5009;DHT22;2523;51.058;6.922;2022-10-16T10:52:53;23.40;97.50
5009;DHT22;2523;51.058;6.922;2022-10-16T10:55:43;23.50;98.60
5009;DHT22;2523;51.058;6.922;2022-10-16T11:00:59;23.60;94.00
5009;DHT22;2523;51.058;6.922;2022-10-16T11:03:35;23.10;94.40
5009;DHT22;2523;51.058;6.922;2022-10-16T11:06:06;22.50;95.70
5009;DHT22;2523;51.058;6.922;2022-10-16T11:08:36;23.40;99.00
5009;DHT22;2523;51.058;6.922;2022-10-16T11:11:07;24.50;92.50
5009;DHT22;2523;51.058;6.922;2022-10-16T11:16:17;25.60;71.80
5009;DHT22;2523;51.058;6.922;2022-10-16T11:19:01;26.70;62.80
5009;DHT22;2523;51.058;6.922;2022-10-16T11:21:31;28.40;54.10
5009;DHT22;2523;51.058;6.922;2022-10-16T11:24:18;29.40;47.30
5009;DHT22;2523;51.058;6.922;2022-10-16T11:26:46;29.90;43.30
5009;DHT22;2523;51.058;6.922;2022-10-16T11:29:29;29.80;42.40
5009;DHT22;2523;51.058;6.922;2022-10-16T11:32:18;30.40;42.80
5009;DHT22;2523;51.058;6.922;2022-10-16T11:34:56;29.60;41.20
5009;DHT22;2523;51.058;6.922;2022-10-16T11:37:28;29.60;42.20
5009;DHT22;2523;51.058;6.922;2022-10-16T11:40:03;29.80;40.80
5009;DHT22;2523;51.058;6.922;2022-10-16T11:42:37;30.80;39.00
5009;DHT22;2523;51.058;6.922;2022-10-16T11:48:00;31.20;36.30
5009;DHT22;2523;51.058;6.922;2022-10-16T11:50:43;29.50;36.40
5009;DHT22;2523;51.058;6.922;2022-10-16T11:53:24;27.50;40.90
5009;DHT22;2523;51.058;6.922;2022-10-16T11:55:52;26.20;46.40
5009;DHT22;2523;51.058;6.922;2022-10-16T12:01:12;25.90;50.40
5009;DHT22;2523;51.058;6.922;2022-10-16T12:04:48;26.40;49.50
5009;DHT22;2523;51.058;6.922;2022-10-16T12:06:55;27.80;45.40
5009;DHT22;2523;51.058;6.922;2022-10-16T12:09:27;29.20;43.80
5009;DHT22;2523;51.058;6.922;2022-10-16T12:11:53;29.30;39.20
5009;DHT22;2523;51.058;6.922;2022-10-16T12:14:22;28.70;40.40
5009;DHT22;2523;51.058;6.922;2022-10-16T12:17:00;28.60;41.10
5009;DHT22;2523;51.058;6.922;2022-10-16T12:19:28;29.00;41.20
5009;DHT22;2523;51.058;6.922;2022-10-16T12:21:56;28.30;40.70
5009;DHT22;2523;51.058;6.922;2022-10-16T12:24:37;28.10;42.20
5009;DHT22;2523;51.058;6.922;2022-10-16T12:27:05;28.00;42.80
5009;DHT22;2523;51.058;6.922;2022-10-16T12:29:37;27.50;42.00
5009;DHT22;2523;51.058;6.922;2022-10-16T12:34:59;26.90;45.80
5009;DHT22;2523;51.058;6.922;2022-10-16T12:37:34;27.00;44.60
5009;DHT22;2523;51.058;6.922;2022-10-16T12:40:14;27.50;44.90
5009;DHT22;2523;51.058;6.922;2022-10-16T12:42:40;27.30;43.40
5009;DHT22;2523;51.058;6.922;2022-10-16T12:47:50;26.00;45.00
5009;DHT22;2523;51.058;6.922;2022-10-16T12:50:37;25.20;47.90
5009;DHT22;2523;51.058;6.922;2022-10-16T12:53:20;24.20;48.30
5009;DHT22;2523;51.058;6.922;2022-10-16T12:56:03;23.60;53.10
5009;DHT22;2523;51.058;6.922;2022-10-16T12:58:45;23.00;52.00
5009;DHT22;2523;51.058;6.922;2022-10-16T13:02:13;23.10;54.80
5009;DHT22;2523;51.058;6.922;2022-10-16T13:04:32;23.00;55.50
5009;DHT22;2523;51.058;6.922;2022-10-16T13:09:58;22.60;69.00
5009;DHT22;2523;51.058;6.922;2022-10-16T13:15:27;22.50;69.10
5009;DHT22;2523;51.058;6.922;2022-10-16T13:18:21;22.60;69.00
5009;DHT22;2523;51.058;6.922;2022-10-16T13:21:03;22.80;69.00
5009;DHT22;2523;51.058;6.922;2022-10-16T13:24:31;22.40;73.90
5009;DHT22;2523;51.058;6.922;2022-10-16T13:27:18;22.00;69.20
5009;DHT22;2523;51.058;6.922;2022-10-16T13:29:54;21.90;77.40
5009;DHT22;2523;51.058;6.922;2022-10-16T13:32:25;22.10;76.00
5009;DHT22;2523;51.058;6.922;2022-10-16T13:34:51;22.30;81.80
5009;DHT22;2523;51.058;6.922;2022-10-16T13:37:20;22.30;74.20
5009;DHT22;2523;51.058;6.922;2022-10-16T13:39:46;22.30;75.20
5009;DHT22;2523;51.058;6.922;2022-10-16T13:42:30;22.30;76.30
5009;DHT22;2523;51.058;6.922;2022-10-16T13:44:56;22.10;76.00
5009;DHT22;2523;51.058;6.922;2022-10-16T13:47:24;22.00;85.60
5009;DHT22;2523;51.058;6.922;2022-10-16T13:50:05;21.80;84.20
5009;DHT22;2523;51.058;6.922;2022-10-16T13:52:31;21.70;78.10
5009;DHT22;2523;51.058;6.922;2022-10-16T13:54:56;21.60;72.80
5009;DHT22;2523;51.058;6.922;2022-10-16T13:57:24;21.40;77.70
5009;DHT22;2523;51.058;6.922;2022-10-16T13:59:50;21.20;93.20
5009;DHT22;2523;51.058;6.922;2022-10-16T14:02:27;21.20;98.90
5009;DHT22;2523;51.058;6.922;2022-10-16T14:04:54;21.00;99.90
5009;DHT22;2523;51.058;6.922;2022-10-16T14:07:28;20.90;96.50
5009;DHT22;2523;51.058;6.922;2022-10-16T14:09:55;20.80;96.40
5009;DHT22;2523;51.058;6.922;2022-10-16T14:12:22;20.80;98.90
5009;DHT22;2523;51.058;6.922;2022-10-16T14:14:51;20.80;91.80
5009;DHT22;2523;51.058;6.922;2022-10-16T14:17:26;20.80;92.80
5009;DHT22;2523;51.058;6.922;2022-10-16T14:19:55;20.70;99.90
5009;DHT22;2523;51.058;6.922;2022-10-16T14:24:57;20.50;99.10
5009;DHT22;2523;51.058;6.922;2022-10-16T14:27:34;20.40;99.90
5009;DHT22;2523;51.058;6.922;2022-10-16T14:30:13;20.30;99.90
5009;DHT22;2523;51.058;6.922;2022-10-16T14:32:53;20.20;99.90
5009;DHT22;2523;51.058;6.922;2022-10-16T14:35:34;20.10;99.90
5009;DHT22;2523;51.058;6.922;2022-10-16T14:38:01;20.00;99.90
5009;DHT22;2523;51.058;6.922;2022-10-16T14:40:35;19.90;99.90
5009;DHT22;2523;51.058;6.922;2022-10-16T14:43:02;19.80;99.90
5009;DHT22;2523;51.058;6.922;2022-10-16T14:45:30;19.80;99.90
5009;DHT22;2523;51.058;6.922;2022-10-16T14:47:58;19.80;99.90
5009;DHT22;2523;51.058;6.922;2022-10-16T14:50:25;19.80;99.90
5009;DHT22;2523;51.058;6.922;2022-10-16T14:52:50;19.70;99.90
5009;DHT22;2523;51.058;6.922;2022-10-16T14:55:16;19.70;99.90
5009;DHT22;2523;51.058;6.922;2022-10-16T14:57:43;19.70;99.90
5009;DHT22;2523;51.058;6.922;2022-10-16T15:02:42;19.60;99.90
5009;DHT22;2523;51.058;6.922;2022-10-16T15:05:12;19.60;99.90
5009;DHT22;2523;51.058;6.922;2022-10-16T15:07:38;19.60;99.90
5009;DHT22;2523;51.058;6.922;2022-10-16T15:10:04;19.60;99.90
5009;DHT22;2523;51.058;6.922;2022-10-16T15:12:30;19.50;99.90
5009;DHT22;2523;51.058;6.922;2022-10-16T15:14:55;19.50;99.90
5009;DHT22;2523;51.058;6.922;2022-10-16T15:17:21;19.40;99.90
5009;DHT22;2523;51.058;6.922;2022-10-16T15:19:46;19.40;99.90
5009;DHT22;2523;51.058;6.922;2022-10-16T15:22:12;19.40;99.90
5009;DHT22;2523;51.058;6.922;2022-10-16T15:24:38;19.40;99.90
5009;DHT22;2523;51.058;6.922;2022-10-16T15:27:03;19.40;99.90
5009;DHT22;2523;51.058;6.922;2022-10-16T15:29:29;19.30;99.90
5009;DHT22;2523;51.058;6.922;2022-10-16T15:31:54;19.30;99.90
5009;DHT22;2523;51.058;6.922;2022-10-16T15:34:20;19.20;99.90
5009;DHT22;2523;51.058;6.922;2022-10-16T15:36:45;19.20;99.90
5009;DHT22;2523;51.058;6.922;2022-10-16T15:39:18;19.20;99.90
5009;DHT22;2523;51.058;6.922;2022-10-16T15:41:45;19.10;99.90
5009;DHT22;2523;51.058;6.922;2022-10-16T15:44:19;19.10;99.90
5009;DHT22;2523;51.058;6.922;2022-10-16T15:46:45;19.00;99.90
5009;DHT22;2523;51.058;6.922;2022-10-16T15:49:11;19.00;99.90
5009;DHT22;2523;51.058;6.922;2022-10-16T15:51:39;18.90;99.90
5009;DHT22;2523;51.058;6.922;2022-10-16T15:54:05;18.80;99.90
5009;DHT22;2523;51.058;6.922;2022-10-16T15:56:30;18.80;99.90
5009;DHT22;2523;51.058;6.922;2022-10-16T15:58:58;18.80;99.90
5009;DHT22;2523;51.058;6.922;2022-10-16T16:01:24;18.70;99.90
5009;DHT22;2523;51.058;6.922;2022-10-16T16:03:53;18.60;99.90
5009;DHT22;2523;51.058;6.922;2022-10-16T16:06:19;18.60;99.90
5009;DHT22;2523;51.058;6.922;2022-10-16T16:08:44;18.60;99.90
5009;DHT22;2523;51.058;6.922;2022-10-16T16:11:12;18.60;99.90
5009;DHT22;2523;51.058;6.922;2022-10-16T16:13:37;18.60;99.90
5009;DHT22;2523;51.058;6.922;2022-10-16T16:16:15;18.60;99.90
5009;DHT22;2523;51.058;6.922;2022-10-16T16:18:41;18.50;99.90
5009;DHT22;2523;51.058;6.922;2022-10-16T16:21:08;18.50;99.90
5009;DHT22;2523;51.058;6.922;2022-10-16T16:23:35;18.50;99.90
5009;DHT22;2523;51.058;6.922;2022-10-16T16:28:37;18.40;99.90
5009;DHT22;2523;51.058;6.922;2022-10-16T16:31:03;18.40;99.90
5009;DHT22;2523;51.058;6.922;2022-10-16T16:33:29;18.40;99.90
5009;DHT22;2523;51.058;6.922;2022-10-16T16:35:57;18.40;99.90
5009;DHT22;2523;51.058;6.922;2022-10-16T16:38:23;18.40;99.90
5009;DHT22;2523;51.058;6.922;2022-10-16T16:40:48;18.30;99.90
5009;DHT22;2523;51.058;6.922;2022-10-16T16:43:14;18.30;99.90
5009;DHT22;2523;51.058;6.922;2022-10-16T16:45:39;18.20;99.90
5009;DHT22;2523;51.058;6.922;2022-10-16T16:48:05;18.20;99.90
5009;DHT22;2523;51.058;6.922;2022-10-16T16:50:35;18.10;99.90
5009;DHT22;2523;51.058;6.922;2022-10-16T16:53:01;18.10;99.90
5009;DHT22;2523;51.058;6.922;2022-10-16T16:55:26;18.00;99.90
5009;DHT22;2523;51.058;6.922;2022-10-16T16:57:52;18.00;99.90
5009;DHT22;2523;51.058;6.922;2022-10-16T17:00:17;18.00;99.90
5009;DHT22;2523;51.058;6.922;2022-10-16T17:02:43;18.00;99.90
5009;DHT22;2523;51.058;6.922;2022-10-16T17:05:10;17.90;99.90
5009;DHT22;2523;51.058;6.922;2022-10-16T17:07:35;18.00;99.90
5009;DHT22;2523;51.058;6.922;2022-10-16T17:10:02;17.90;99.90
5009;DHT22;2523;51.058;6.922;2022-10-16T17:12:29;17.90;99.90
5009;DHT22;2523;51.058;6.922;2022-10-16T17:14:55;17.90;99.90
5009;DHT22;2523;51.058;6.922;2022-10-16T17:17:20;17.90;99.90
5009;DHT22;2523;51.058;6.922;2022-10-16T17:19:48;17.90;99.90
5009;DHT22;2523;51.058;6.922;2022-10-16T17:22:14;17.90;99.90
5009;DHT22;2523;51.058;6.922;2022-10-16T17:24:39;17.90;99.90
5009;DHT22;2523;51.058;6.922;2022-10-16T17:27:05;17.90;99.90
5009;DHT22;2523;51.058;6.922;2022-10-16T17:29:30;17.80;99.90
5009;DHT22;2523;51.058;6.922;2022-10-16T17:31:56;17.80;99.90
5009;DHT22;2523;51.058;6.922;2022-10-16T17:34:23;17.80;99.90
5009;DHT22;2523;51.058;6.922;2022-10-16T17:36:49;17.80;99.90
5009;DHT22;2523;51.058;6.922;2022-10-16T17:39:15;17.80;99.90
5009;DHT22;2523;51.058;6.922;2022-10-16T17:41:44;17.80;99.90
5009;DHT22;2523;51.058;6.922;2022-10-16T17:44:11;17.80;99.90